Clearwater, Florida
Current Conditions -  °F | °C
As of 4:15 AM on Monday 24 Nov 2014 (Local Time) from KCLW Reporting Station
Haze Haze  
Wind Chill: 73°   Ceiling: 300
Heat Index: 73°   Visibility: 3mi
Dew Point: 72°   Wind: 12mph
Humidity: 94%   Direction: 190°S
Pressure: 29.91"   Gusts: 17mph
Location:  27.97°N, 82.8°W
Report Text: KCLW 240915Z AUTO 19010G15KT 3SM BR OVC003 23/22 A2991 RMK AO2
Loading
Personal Weather Stations






























Interactive Weather Map New forecast layout! Learn more

10-Day Weather Forecast

Advertisements
Track Severe Weather on mobile